sensor_id;sensor_type;location;lat;lon;timestamp;P1;durP1;ratioP1;P2;durP2;ratioP2
75506;SDS011;64086;43.220;27.878;2023-08-06T00:02:17;24.48;;;18.17;;
75506;SDS011;64086;43.220;27.878;2023-08-06T00:04:43;18.45;;;16.55;;
75506;SDS011;64086;43.220;27.878;2023-08-06T00:07:08;17.65;;;15.95;;
75506;SDS011;64086;43.220;27.878;2023-08-06T00:09:34;18.45;;;16.77;;
75506;SDS011;64086;43.220;27.878;2023-08-06T00:11:59;17.58;;;15.90;;
75506;SDS011;64086;43.220;27.878;2023-08-06T00:14:24;17.50;;;15.95;;
75506;SDS011;64086;43.220;27.878;2023-08-06T00:16:50;18.27;;;16.48;;
75506;SDS011;64086;43.220;27.878;2023-08-06T00:19:15;17.63;;;16.05;;
75506;SDS011;64086;43.220;27.878;2023-08-06T00:21:41;17.70;;;15.93;;
75506;SDS011;64086;43.220;27.878;2023-08-06T00:24:06;17.55;;;15.85;;
75506;SDS011;64086;43.220;27.878;2023-08-06T00:26:32;17.20;;;15.68;;
75506;SDS011;64086;43.220;27.878;2023-08-06T00:28:57;17.23;;;15.73;;
75506;SDS011;64086;43.220;27.878;2023-08-06T00:31:23;19.05;;;16.25;;
75506;SDS011;64086;43.220;27.878;2023-08-06T00:33:48;17.48;;;15.95;;
75506;SDS011;64086;43.220;27.878;2023-08-06T00:36:13;16.48;;;14.95;;
75506;SDS011;64086;43.220;27.878;2023-08-06T00:38:39;16.90;;;15.48;;
75506;SDS011;64086;43.220;27.878;2023-08-06T00:41:04;16.98;;;15.68;;
75506;SDS011;64086;43.220;27.878;2023-08-06T00:43:30;16.70;;;15.30;;
75506;SDS011;64086;43.220;27.878;2023-08-06T00:45:55;18.52;;;16.17;;
75506;SDS011;64086;43.220;27.878;2023-08-06T00:48:21;17.40;;;15.73;;
75506;SDS011;64086;43.220;27.878;2023-08-06T00:50:46;17.98;;;16.20;;
75506;SDS011;64086;43.220;27.878;2023-08-06T00:53:12;20.95;;;17.10;;
75506;SDS011;64086;43.220;27.878;2023-08-06T00:55:37;22.73;;;19.15;;
75506;SDS011;64086;43.220;27.878;2023-08-06T00:58:03;21.90;;;19.63;;
75506;SDS011;64086;43.220;27.878;2023-08-06T01:00:29;20.83;;;18.63;;
75506;SDS011;64086;43.220;27.878;2023-08-06T01:02:54;19.58;;;17.65;;
75506;SDS011;64086;43.220;27.878;2023-08-06T01:05:20;17.23;;;15.63;;
75506;SDS011;64086;43.220;27.878;2023-08-06T01:15:54;19.10;;;17.35;;
75506;SDS011;64086;43.220;27.878;2023-08-06T01:18:24;23.38;;;17.45;;
75506;SDS011;64086;43.220;27.878;2023-08-06T01:20:50;18.92;;;17.13;;
75506;SDS011;64086;43.220;27.878;2023-08-06T01:23:15;18.25;;;16.65;;
75506;SDS011;64086;43.220;27.878;2023-08-06T01:28:24;17.23;;;15.63;;
75506;SDS011;64086;43.220;27.878;2023-08-06T01:30:56;16.38;;;14.98;;
75506;SDS011;64086;43.220;27.878;2023-08-06T01:33:24;16.20;;;14.70;;
75506;SDS011;64086;43.220;27.878;2023-08-06T01:35:53;17.60;;;15.77;;
75506;SDS011;64086;43.220;27.878;2023-08-06T01:38:19;16.23;;;14.82;;
75506;SDS011;64086;43.220;27.878;2023-08-06T01:40:45;17.33;;;15.85;;
75506;SDS011;64086;43.220;27.878;2023-08-06T01:43:10;17.38;;;15.68;;
75506;SDS011;64086;43.220;27.878;2023-08-06T01:45:36;17.08;;;15.52;;
75506;SDS011;64086;43.220;27.878;2023-08-06T01:48:01;16.80;;;15.35;;
75506;SDS011;64086;43.220;27.878;2023-08-06T01:50:27;16.80;;;15.30;;
75506;SDS011;64086;43.220;27.878;2023-08-06T01:52:52;17.33;;;15.73;;
75506;SDS011;64086;43.220;27.878;2023-08-06T01:55:17;16.65;;;15.23;;
75506;SDS011;64086;43.220;27.878;2023-08-06T01:57:43;16.95;;;15.27;;
75506;SDS011;64086;43.220;27.878;2023-08-06T02:00:09;17.08;;;15.48;;
75506;SDS011;64086;43.220;27.878;2023-08-06T02:02:35;18.00;;;16.30;;
75506;SDS011;64086;43.220;27.878;2023-08-06T02:05:00;17.58;;;15.98;;
75506;SDS011;64086;43.220;27.878;2023-08-06T02:07:25;18.17;;;16.55;;
75506;SDS011;64086;43.220;27.878;2023-08-06T02:09:51;19.80;;;17.67;;
75506;SDS011;64086;43.220;27.878;2023-08-06T02:12:16;20.08;;;18.17;;
75506;SDS011;64086;43.220;27.878;2023-08-06T02:14:42;19.45;;;17.42;;
75506;SDS011;64086;43.220;27.878;2023-08-06T02:17:07;20.38;;;18.48;;
75506;SDS011;64086;43.220;27.878;2023-08-06T02:19:32;20.58;;;18.35;;
75506;SDS011;64086;43.220;27.878;2023-08-06T02:21:58;22.50;;;18.70;;
75506;SDS011;64086;43.220;27.878;2023-08-06T02:24:23;20.65;;;18.48;;
75506;SDS011;64086;43.220;27.878;2023-08-06T02:26:49;24.48;;;19.52;;
75506;SDS011;64086;43.220;27.878;2023-08-06T02:29:16;21.67;;;18.20;;
75506;SDS011;64086;43.220;27.878;2023-08-06T02:31:42;30.63;;;20.10;;
75506;SDS011;64086;43.220;27.878;2023-08-06T02:34:07;26.10;;;19.05;;
75506;SDS011;64086;43.220;27.878;2023-08-06T02:36:33;22.02;;;19.80;;
75506;SDS011;64086;43.220;27.878;2023-08-06T02:38:58;20.45;;;18.35;;
75506;SDS011;64086;43.220;27.878;2023-08-06T02:41:24;18.25;;;16.30;;
75506;SDS011;64086;43.220;27.878;2023-08-06T02:43:49;18.65;;;16.80;;
75506;SDS011;64086;43.220;27.878;2023-08-06T02:46:14;18.45;;;16.70;;
75506;SDS011;64086;43.220;27.878;2023-08-06T02:48:40;17.88;;;16.27;;
75506;SDS011;64086;43.220;27.878;2023-08-06T02:51:06;17.63;;;16.13;;
75506;SDS011;64086;43.220;27.878;2023-08-06T02:53:31;18.05;;;16.35;;
75506;SDS011;64086;43.220;27.878;2023-08-06T02:55:57;17.80;;;16.10;;
75506;SDS011;64086;43.220;27.878;2023-08-06T02:58:22;18.70;;;17.00;;
75506;SDS011;64086;43.220;27.878;2023-08-06T03:01:00;19.33;;;17.30;;
75506;SDS011;64086;43.220;27.878;2023-08-06T03:03:28;18.30;;;16.60;;
75506;SDS011;64086;43.220;27.878;2023-08-06T03:05:54;19.77;;;17.77;;
75506;SDS011;64086;43.220;27.878;2023-08-06T03:08:19;20.23;;;18.13;;
75506;SDS011;64086;43.220;27.878;2023-08-06T03:10:48;19.75;;;17.70;;
75506;SDS011;64086;43.220;27.878;2023-08-06T03:13:17;20.27;;;18.27;;
75506;SDS011;64086;43.220;27.878;2023-08-06T03:15:43;19.52;;;17.63;;
75506;SDS011;64086;43.220;27.878;2023-08-06T03:18:08;20.17;;;18.35;;
75506;SDS011;64086;43.220;27.878;2023-08-06T03:20:34;19.90;;;18.15;;
75506;SDS011;64086;43.220;27.878;2023-08-06T03:22:59;19.50;;;17.55;;
75506;SDS011;64086;43.220;27.878;2023-08-06T03:25:24;20.48;;;18.58;;
75506;SDS011;64086;43.220;27.878;2023-08-06T03:27:50;19.52;;;17.90;;
75506;SDS011;64086;43.220;27.878;2023-08-06T03:30:15;20.98;;;17.55;;
75506;SDS011;64086;43.220;27.878;2023-08-06T03:32:41;20.15;;;18.10;;
75506;SDS011;64086;43.220;27.878;2023-08-06T03:35:06;21.27;;;18.45;;
75506;SDS011;64086;43.220;27.878;2023-08-06T03:37:32;20.67;;;18.85;;
75506;SDS011;64086;43.220;27.878;2023-08-06T03:39:57;20.80;;;18.52;;
75506;SDS011;64086;43.220;27.878;2023-08-06T03:42:23;20.75;;;18.38;;
75506;SDS011;64086;43.220;27.878;2023-08-06T03:44:48;20.98;;;18.58;;
75506;SDS011;64086;43.220;27.878;2023-08-06T03:47:14;20.33;;;18.40;;
75506;SDS011;64086;43.220;27.878;2023-08-06T03:49:39;20.60;;;18.90;;
75506;SDS011;64086;43.220;27.878;2023-08-06T03:52:05;20.92;;;18.08;;
75506;SDS011;64086;43.220;27.878;2023-08-06T03:54:30;23.17;;;18.13;;
75506;SDS011;64086;43.220;27.878;2023-08-06T03:56:56;25.92;;;19.23;;
75506;SDS011;64086;43.220;27.878;2023-08-06T03:59:21;20.38;;;18.27;;
75506;SDS011;64086;43.220;27.878;2023-08-06T04:01:47;21.42;;;18.52;;
75506;SDS011;64086;43.220;27.878;2023-08-06T04:04:12;23.45;;;18.38;;
75506;SDS011;64086;43.220;27.878;2023-08-06T04:06:38;21.15;;;17.70;;
75506;SDS011;64086;43.220;27.878;2023-08-06T04:09:03;20.98;;;18.63;;
75506;SDS011;64086;43.220;27.878;2023-08-06T04:11:29;23.63;;;18.08;;
75506;SDS011;64086;43.220;27.878;2023-08-06T04:13:54;20.60;;;17.65;;
75506;SDS011;64086;43.220;27.878;2023-08-06T04:16:20;20.67;;;17.00;;
75506;SDS011;64086;43.220;27.878;2023-08-06T04:18:46;18.35;;;16.65;;
75506;SDS011;64086;43.220;27.878;2023-08-06T04:21:12;17.35;;;15.55;;
75506;SDS011;64086;43.220;27.878;2023-08-06T04:23:37;22.20;;;15.65;;
75506;SDS011;64086;43.220;27.878;2023-08-06T04:26:02;17.70;;;15.75;;
75506;SDS011;64086;43.220;27.878;2023-08-06T04:28:28;17.52;;;15.38;;
75506;SDS011;64086;43.220;27.878;2023-08-06T04:30:53;16.52;;;15.02;;
75506;SDS011;64086;43.220;27.878;2023-08-06T04:33:19;16.23;;;14.55;;
75506;SDS011;64086;43.220;27.878;2023-08-06T04:35:45;16.30;;;14.85;;
75506;SDS011;64086;43.220;27.878;2023-08-06T04:38:11;16.63;;;14.93;;
75506;SDS011;64086;43.220;27.878;2023-08-06T04:40:36;16.38;;;14.80;;
75506;SDS011;64086;43.220;27.878;2023-08-06T04:43:02;14.88;;;13.57;;
75506;SDS011;64086;43.220;27.878;2023-08-06T04:45:27;15.60;;;14.15;;
75506;SDS011;64086;43.220;27.878;2023-08-06T04:47:53;15.65;;;14.15;;
75506;SDS011;64086;43.220;27.878;2023-08-06T04:50:21;14.10;;;12.70;;
75506;SDS011;64086;43.220;27.878;2023-08-06T04:52:47;13.95;;;12.55;;
75506;SDS011;64086;43.220;27.878;2023-08-06T04:55:12;15.77;;;12.80;;
75506;SDS011;64086;43.220;27.878;2023-08-06T04:57:38;11.48;;;10.57;;
75506;SDS011;64086;43.220;27.878;2023-08-06T05:00:03;12.10;;;11.02;;
75506;SDS011;64086;43.220;27.878;2023-08-06T05:02:30;11.80;;;10.80;;
75506;SDS011;64086;43.220;27.878;2023-08-06T05:04:57;21.30;;;13.23;;
75506;SDS011;64086;43.220;27.878;2023-08-06T05:07:23;14.15;;;12.27;;
75506;SDS011;64086;43.220;27.878;2023-08-06T05:09:48;13.02;;;11.90;;
75506;SDS011;64086;43.220;27.878;2023-08-06T05:12:14;12.98;;;11.75;;
75506;SDS011;64086;43.220;27.878;2023-08-06T05:14:39;16.88;;;12.80;;
75506;SDS011;64086;43.220;27.878;2023-08-06T05:17:05;13.25;;;11.73;;
75506;SDS011;64086;43.220;27.878;2023-08-06T05:19:30;13.52;;;12.00;;
75506;SDS011;64086;43.220;27.878;2023-08-06T05:21:56;12.27;;;11.32;;
75506;SDS011;64086;43.220;27.878;2023-08-06T05:24:21;12.85;;;11.60;;
75506;SDS011;64086;43.220;27.878;2023-08-06T05:26:46;12.35;;;11.30;;
75506;SDS011;64086;43.220;27.878;2023-08-06T05:29:12;12.18;;;10.98;;
75506;SDS011;64086;43.220;27.878;2023-08-06T05:31:38;15.23;;;11.70;;
75506;SDS011;64086;43.220;27.878;2023-08-06T05:34:03;11.27;;;10.20;;
75506;SDS011;64086;43.220;27.878;2023-08-06T05:36:29;11.70;;;10.55;;
75506;SDS011;64086;43.220;27.878;2023-08-06T05:38:54;12.23;;;10.82;;
75506;SDS011;64086;43.220;27.878;2023-08-06T05:41:20;10.85;;;9.85;;
75506;SDS011;64086;43.220;27.878;2023-08-06T05:43:45;10.68;;;9.70;;
75506;SDS011;64086;43.220;27.878;2023-08-06T05:46:10;10.20;;;9.30;;
75506;SDS011;64086;43.220;27.878;2023-08-06T05:48:36;10.43;;;9.52;;
75506;SDS011;64086;43.220;27.878;2023-08-06T05:51:01;10.48;;;9.48;;
75506;SDS011;64086;43.220;27.878;2023-08-06T05:53:27;9.77;;;8.77;;
75506;SDS011;64086;43.220;27.878;2023-08-06T05:55:52;10.88;;;9.77;;
75506;SDS011;64086;43.220;27.878;2023-08-06T05:58:18;10.02;;;9.25;;
75506;SDS011;64086;43.220;27.878;2023-08-06T06:00:45;9.93;;;9.13;;
75506;SDS011;64086;43.220;27.878;2023-08-06T06:03:10;10.07;;;9.27;;
75506;SDS011;64086;43.220;27.878;2023-08-06T06:05:39;9.65;;;8.80;;
75506;SDS011;64086;43.220;27.878;2023-08-06T06:08:04;10.38;;;9.40;;
75506;SDS011;64086;43.220;27.878;2023-08-06T06:10:30;9.98;;;9.10;;
75506;SDS011;64086;43.220;27.878;2023-08-06T06:12:55;9.65;;;8.75;;
75506;SDS011;64086;43.220;27.878;2023-08-06T06:15:21;9.52;;;8.63;;
75506;SDS011;64086;43.220;27.878;2023-08-06T06:17:46;9.95;;;9.05;;
75506;SDS011;64086;43.220;27.878;2023-08-06T06:20:12;9.50;;;8.60;;
75506;SDS011;64086;43.220;27.878;2023-08-06T06:22:37;9.55;;;8.70;;
75506;SDS011;64086;43.220;27.878;2023-08-06T06:25:03;9.80;;;8.85;;
75506;SDS011;64086;43.220;27.878;2023-08-06T06:27:28;9.68;;;8.82;;
75506;SDS011;64086;43.220;27.878;2023-08-06T06:29:54;10.00;;;9.07;;
75506;SDS011;64086;43.220;27.878;2023-08-06T06:32:20;9.48;;;8.65;;
75506;SDS011;64086;43.220;27.878;2023-08-06T06:34:45;9.50;;;8.80;;
75506;SDS011;64086;43.220;27.878;2023-08-06T06:37:11;9.57;;;8.75;;
75506;SDS011;64086;43.220;27.878;2023-08-06T06:39:36;9.05;;;8.25;;
75506;SDS011;64086;43.220;27.878;2023-08-06T06:42:02;9.00;;;8.30;;
75506;SDS011;64086;43.220;27.878;2023-08-06T06:44:27;9.85;;;8.85;;
75506;SDS011;64086;43.220;27.878;2023-08-06T06:46:53;9.95;;;8.18;;
75506;SDS011;64086;43.220;27.878;2023-08-06T06:49:18;9.18;;;8.48;;
75506;SDS011;64086;43.220;27.878;2023-08-06T06:51:44;9.93;;;9.00;;
75506;SDS011;64086;43.220;27.878;2023-08-06T06:54:09;9.45;;;7.97;;
75506;SDS011;64086;43.220;27.878;2023-08-06T06:56:35;9.40;;;8.65;;
75506;SDS011;64086;43.220;27.878;2023-08-06T06:59:00;9.07;;;8.38;;
75506;SDS011;64086;43.220;27.878;2023-08-06T07:01:26;9.63;;;8.65;;
75506;SDS011;64086;43.220;27.878;2023-08-06T07:03:51;8.90;;;8.20;;
75506;SDS011;64086;43.220;27.878;2023-08-06T07:06:16;12.25;;;8.65;;
75506;SDS011;64086;43.220;27.878;2023-08-06T07:08:43;10.50;;;9.48;;
75506;SDS011;64086;43.220;27.878;2023-08-06T07:11:09;9.50;;;8.80;;
75506;SDS011;64086;43.220;27.878;2023-08-06T07:13:35;9.32;;;8.48;;
75506;SDS011;64086;43.220;27.878;2023-08-06T07:16:01;9.95;;;9.07;;
75506;SDS011;64086;43.220;27.878;2023-08-06T07:18:26;8.90;;;8.25;;
75506;SDS011;64086;43.220;27.878;2023-08-06T07:20:53;10.35;;;9.35;;
75506;SDS011;64086;43.220;27.878;2023-08-06T07:23:20;9.45;;;8.50;;
75506;SDS011;64086;43.220;27.878;2023-08-06T07:25:46;9.88;;;8.90;;
75506;SDS011;64086;43.220;27.878;2023-08-06T07:28:12;9.60;;;8.55;;
75506;SDS011;64086;43.220;27.878;2023-08-06T07:30:38;8.85;;;8.20;;
75506;SDS011;64086;43.220;27.878;2023-08-06T07:33:04;9.52;;;8.63;;
75506;SDS011;64086;43.220;27.878;2023-08-06T07:35:30;10.63;;;8.73;;
75506;SDS011;64086;43.220;27.878;2023-08-06T07:37:56;8.68;;;7.95;;
75506;SDS011;64086;43.220;27.878;2023-08-06T07:40:21;8.90;;;8.18;;
75506;SDS011;64086;43.220;27.878;2023-08-06T07:42:47;9.02;;;8.27;;
75506;SDS011;64086;43.220;27.878;2023-08-06T07:45:12;9.38;;;8.48;;
75506;SDS011;64086;43.220;27.878;2023-08-06T07:47:39;9.75;;;8.85;;
75506;SDS011;64086;43.220;27.878;2023-08-06T07:50:04;8.85;;;8.15;;
75506;SDS011;64086;43.220;27.878;2023-08-06T07:52:30;8.98;;;8.20;;
75506;SDS011;64086;43.220;27.878;2023-08-06T07:54:55;9.20;;;8.45;;
75506;SDS011;64086;43.220;27.878;2023-08-06T07:57:21;9.15;;;8.45;;
75506;SDS011;64086;43.220;27.878;2023-08-06T07:59:46;9.30;;;8.48;;
75506;SDS011;64086;43.220;27.878;2023-08-06T08:02:12;8.95;;;8.20;;
75506;SDS011;64086;43.220;27.878;2023-08-06T08:04:37;9.18;;;8.40;;
75506;SDS011;64086;43.220;27.878;2023-08-06T08:07:03;10.90;;;8.68;;
75506;SDS011;64086;43.220;27.878;2023-08-06T08:09:28;9.23;;;8.43;;
75506;SDS011;64086;43.220;27.878;2023-08-06T08:11:54;9.27;;;8.38;;
75506;SDS011;64086;43.220;27.878;2023-08-06T08:14:20;10.00;;;8.85;;
75506;SDS011;64086;43.220;27.878;2023-08-06T08:16:45;9.43;;;8.52;;
75506;SDS011;64086;43.220;27.878;2023-08-06T08:19:10;9.82;;;8.93;;
75506;SDS011;64086;43.220;27.878;2023-08-06T08:21:36;9.18;;;8.38;;
75506;SDS011;64086;43.220;27.878;2023-08-06T08:24:03;8.70;;;8.10;;
75506;SDS011;64086;43.220;27.878;2023-08-06T08:26:29;9.20;;;8.48;;
75506;SDS011;64086;43.220;27.878;2023-08-06T08:28:54;9.90;;;8.95;;
75506;SDS011;64086;43.220;27.878;2023-08-06T08:31:20;9.35;;;8.55;;
75506;SDS011;64086;43.220;27.878;2023-08-06T08:33:45;9.20;;;8.50;;
75506;SDS011;64086;43.220;27.878;2023-08-06T08:36:11;10.05;;;9.07;;
75506;SDS011;64086;43.220;27.878;2023-08-06T08:38:36;9.63;;;8.57;;
75506;SDS011;64086;43.220;27.878;2023-08-06T08:41:02;8.82;;;8.13;;
75506;SDS011;64086;43.220;27.878;2023-08-06T08:43:27;9.55;;;8.75;;
75506;SDS011;64086;43.220;27.878;2023-08-06T08:45:54;8.93;;;7.97;;
75506;SDS011;64086;43.220;27.878;2023-08-06T08:48:25;9.30;;;8.38;;
75506;SDS011;64086;43.220;27.878;2023-08-06T08:50:52;9.20;;;8.40;;
75506;SDS011;64086;43.220;27.878;2023-08-06T08:53:17;8.65;;;7.97;;
75506;SDS011;64086;43.220;27.878;2023-08-06T08:55:43;8.70;;;8.00;;
75506;SDS011;64086;43.220;27.878;2023-08-06T08:58:13;8.55;;;7.85;;
75506;SDS011;64086;43.220;27.878;2023-08-06T09:00:39;8.27;;;7.68;;
75506;SDS011;64086;43.220;27.878;2023-08-06T09:03:07;9.00;;;8.27;;
75506;SDS011;64086;43.220;27.878;2023-08-06T09:05:32;8.90;;;8.13;;
75506;SDS011;64086;43.220;27.878;2023-08-06T09:08:02;8.73;;;8.13;;
75506;SDS011;64086;43.220;27.878;2023-08-06T09:10:29;9.10;;;8.30;;
75506;SDS011;64086;43.220;27.878;2023-08-06T09:12:55;9.73;;;8.82;;
75506;SDS011;64086;43.220;27.878;2023-08-06T09:15:25;9.35;;;8.52;;
75506;SDS011;64086;43.220;27.878;2023-08-06T09:17:54;9.50;;;8.57;;
75506;SDS011;64086;43.220;27.878;2023-08-06T09:20:20;9.13;;;8.43;;
75506;SDS011;64086;43.220;27.878;2023-08-06T09:22:46;8.95;;;8.15;;
75506;SDS011;64086;43.220;27.878;2023-08-06T09:25:14;9.63;;;8.80;;
75506;SDS011;64086;43.220;27.878;2023-08-06T09:27:46;9.50;;;8.70;;
75506;SDS011;64086;43.220;27.878;2023-08-06T09:30:12;9.75;;;8.57;;
75506;SDS011;64086;43.220;27.878;2023-08-06T09:32:58;9.38;;;8.45;;
75506;SDS011;64086;43.220;27.878;2023-08-06T09:35:24;8.90;;;8.13;;
75506;SDS011;64086;43.220;27.878;2023-08-06T09:37:50;9.38;;;8.32;;
75506;SDS011;64086;43.220;27.878;2023-08-06T09:40:28;8.90;;;8.15;;
75506;SDS011;64086;43.220;27.878;2023-08-06T09:42:55;9.20;;;8.40;;
75506;SDS011;64086;43.220;27.878;2023-08-06T09:45:21;9.75;;;8.80;;
75506;SDS011;64086;43.220;27.878;2023-08-06T09:47:50;9.05;;;8.35;;
75506;SDS011;64086;43.220;27.878;2023-08-06T09:50:19;8.68;;;7.97;;
75506;SDS011;64086;43.220;27.878;2023-08-06T09:52:45;9.32;;;8.48;;
75506;SDS011;64086;43.220;27.878;2023-08-06T09:55:12;9.15;;;8.35;;
75506;SDS011;64086;43.220;27.878;2023-08-06T09:57:39;9.38;;;8.65;;
75506;SDS011;64086;43.220;27.878;2023-08-06T10:00:05;9.70;;;8.82;;
75506;SDS011;64086;43.220;27.878;2023-08-06T10:02:33;9.00;;;8.20;;
75506;SDS011;64086;43.220;27.878;2023-08-06T10:05:00;9.35;;;8.50;;
75506;SDS011;64086;43.220;27.878;2023-08-06T10:07:25;9.80;;;8.90;;
75506;SDS011;64086;43.220;27.878;2023-08-06T10:09:51;9.98;;;8.48;;
75506;SDS011;64086;43.220;27.878;2023-08-06T10:12:16;10.27;;;8.57;;
75506;SDS011;64086;43.220;27.878;2023-08-06T10:14:44;11.30;;;8.85;;
75506;SDS011;64086;43.220;27.878;2023-08-06T10:17:11;10.57;;;8.95;;
75506;SDS011;64086;43.220;27.878;2023-08-06T10:19:36;9.43;;;8.60;;
75506;SDS011;64086;43.220;27.878;2023-08-06T10:22:12;9.35;;;8.65;;
75506;SDS011;64086;43.220;27.878;2023-08-06T10:32:52;9.23;;;8.52;;
75506;SDS011;64086;43.220;27.878;2023-08-06T10:40:29;9.48;;;8.57;;
75506;SDS011;64086;43.220;27.878;2023-08-06T10:43:00;9.95;;;9.05;;
75506;SDS011;64086;43.220;27.878;2023-08-06T10:45:28;9.52;;;8.60;;
75506;SDS011;64086;43.220;27.878;2023-08-06T10:47:55;9.60;;;8.80;;
75506;SDS011;64086;43.220;27.878;2023-08-06T10:50:24;10.77;;;9.65;;
75506;SDS011;64086;43.220;27.878;2023-08-06T10:52:49;10.13;;;9.20;;
75506;SDS011;64086;43.220;27.878;2023-08-06T10:55:49;11.63;;;9.38;;
75506;SDS011;64086;43.220;27.878;2023-08-06T10:58:07;10.27;;;9.13;;
75506;SDS011;64086;43.220;27.878;2023-08-06T11:00:33;10.13;;;9.20;;
75506;SDS011;64086;43.220;27.878;2023-08-06T11:02:58;10.18;;;9.23;;
75506;SDS011;64086;43.220;27.878;2023-08-06T11:05:24;10.57;;;9.55;;
75506;SDS011;64086;43.220;27.878;2023-08-06T11:07:49;11.00;;;9.23;;
75506;SDS011;64086;43.220;27.878;2023-08-06T11:10:16;10.65;;;9.65;;
75506;SDS011;64086;43.220;27.878;2023-08-06T11:12:42;10.55;;;9.63;;
75506;SDS011;64086;43.220;27.878;2023-08-06T11:15:07;10.65;;;9.75;;
75506;SDS011;64086;43.220;27.878;2023-08-06T11:17:34;9.88;;;8.93;;
75506;SDS011;64086;43.220;27.878;2023-08-06T11:20:00;10.50;;;9.48;;
75506;SDS011;64086;43.220;27.878;2023-08-06T11:22:27;10.93;;;9.82;;
75506;SDS011;64086;43.220;27.878;2023-08-06T11:24:52;10.48;;;9.48;;
75506;SDS011;64086;43.220;27.878;2023-08-06T11:27:18;10.43;;;9.38;;
75506;SDS011;64086;43.220;27.878;2023-08-06T11:29:44;10.35;;;9.45;;
75506;SDS011;64086;43.220;27.878;2023-08-06T11:32:09;10.52;;;8.82;;
75506;SDS011;64086;43.220;27.878;2023-08-06T11:34:35;10.07;;;9.27;;
75506;SDS011;64086;43.220;27.878;2023-08-06T11:37:04;10.30;;;9.20;;
75506;SDS011;64086;43.220;27.878;2023-08-06T11:39:34;11.65;;;10.07;;
75506;SDS011;64086;43.220;27.878;2023-08-06T11:41:59;10.60;;;9.70;;
75506;SDS011;64086;43.220;27.878;2023-08-06T11:44:29;11.20;;;9.90;;
75506;SDS011;64086;43.220;27.878;2023-08-06T11:46:57;10.65;;;9.70;;
75506;SDS011;64086;43.220;27.878;2023-08-06T11:52:15;10.82;;;9.85;;
75506;SDS011;64086;43.220;27.878;2023-08-06T11:54:51;10.88;;;9.80;;
75506;SDS011;64086;43.220;27.878;2023-08-06T11:57:26;11.43;;;10.15;;
75506;SDS011;64086;43.220;27.878;2023-08-06T11:59:53;11.68;;;10.18;;
75506;SDS011;64086;43.220;27.878;2023-08-06T12:02:18;13.95;;;10.20;;
75506;SDS011;64086;43.220;27.878;2023-08-06T12:05:01;18.70;;;6.13;;
75506;SDS011;64086;43.220;27.878;2023-08-06T12:07:46;11.73;;;6.40;;
75506;SDS011;64086;43.220;27.878;2023-08-06T12:10:13;11.57;;;5.90;;
75506;SDS011;64086;43.220;27.878;2023-08-06T12:12:39;10.65;;;6.35;;
75506;SDS011;64086;43.220;27.878;2023-08-06T12:15:05;14.07;;;6.15;;
75506;SDS011;64086;43.220;27.878;2023-08-06T12:17:31;8.60;;;5.18;;
75506;SDS011;64086;43.220;27.878;2023-08-06T12:19:57;7.47;;;5.03;;
75506;SDS011;64086;43.220;27.878;2023-08-06T12:22:22;7.43;;;5.20;;
75506;SDS011;64086;43.220;27.878;2023-08-06T12:24:48;5.43;;;4.63;;
75506;SDS011;64086;43.220;27.878;2023-08-06T12:27:14;8.15;;;5.05;;
75506;SDS011;64086;43.220;27.878;2023-08-06T12:29:42;5.72;;;4.93;;
75506;SDS011;64086;43.220;27.878;2023-08-06T12:32:09;6.82;;;5.10;;
75506;SDS011;64086;43.220;27.878;2023-08-06T12:34:35;6.45;;;5.85;;
75506;SDS011;64086;43.220;27.878;2023-08-06T12:37:01;7.13;;;5.68;;
75506;SDS011;64086;43.220;27.878;2023-08-06T12:39:27;7.60;;;6.18;;
75506;SDS011;64086;43.220;27.878;2023-08-06T12:41:54;8.10;;;5.78;;
75506;SDS011;64086;43.220;27.878;2023-08-06T12:44:23;6.95;;;6.13;;
75506;SDS011;64086;43.220;27.878;2023-08-06T12:46:49;12.90;;;6.80;;
75506;SDS011;64086;43.220;27.878;2023-08-06T12:49:16;6.97;;;6.20;;
75506;SDS011;64086;43.220;27.878;2023-08-06T12:51:41;7.03;;;6.15;;
75506;SDS011;64086;43.220;27.878;2023-08-06T12:54:08;8.68;;;6.30;;
75506;SDS011;64086;43.220;27.878;2023-08-06T12:56:34;7.40;;;6.70;;
75506;SDS011;64086;43.220;27.878;2023-08-06T12:58:59;7.43;;;6.50;;
75506;SDS011;64086;43.220;27.878;2023-08-06T13:01:25;9.98;;;6.53;;
75506;SDS011;64086;43.220;27.878;2023-08-06T13:03:50;7.13;;;6.30;;
75506;SDS011;64086;43.220;27.878;2023-08-06T13:06:15;7.22;;;6.53;;
75506;SDS011;64086;43.220;27.878;2023-08-06T13:08:41;7.85;;;6.05;;
75506;SDS011;64086;43.220;27.878;2023-08-06T13:11:06;6.80;;;5.80;;
75506;SDS011;64086;43.220;27.878;2023-08-06T13:13:32;8.13;;;5.93;;
75506;SDS011;64086;43.220;27.878;2023-08-06T13:15:57;7.65;;;5.60;;
75506;SDS011;64086;43.220;27.878;2023-08-06T13:18:23;6.32;;;5.72;;
75506;SDS011;64086;43.220;27.878;2023-08-06T13:20:48;9.25;;;5.45;;
75506;SDS011;64086;43.220;27.878;2023-08-06T13:23:17;7.55;;;6.15;;
75506;SDS011;64086;43.220;27.878;2023-08-06T13:25:43;7.68;;;5.53;;
75506;SDS011;64086;43.220;27.878;2023-08-06T13:28:08;5.93;;;5.43;;
75506;SDS011;64086;43.220;27.878;2023-08-06T13:30:34;5.97;;;5.43;;
75506;SDS011;64086;43.220;27.878;2023-08-06T13:33:00;6.20;;;5.65;;
75506;SDS011;64086;43.220;27.878;2023-08-06T13:35:27;6.90;;;5.57;;
75506;SDS011;64086;43.220;27.878;2023-08-06T13:37:52;5.57;;;5.07;;
75506;SDS011;64086;43.220;27.878;2023-08-06T13:40:19;6.03;;;5.53;;
75506;SDS011;64086;43.220;27.878;2023-08-06T13:42:44;5.97;;;5.38;;
75506;SDS011;64086;43.220;27.878;2023-08-06T13:45:10;5.60;;;5.10;;
75506;SDS011;64086;43.220;27.878;2023-08-06T13:47:35;5.53;;;5.00;;
75506;SDS011;64086;43.220;27.878;2023-08-06T13:50:01;6.00;;;5.50;;
75506;SDS011;64086;43.220;27.878;2023-08-06T13:52:27;6.13;;;5.50;;
75506;SDS011;64086;43.220;27.878;2023-08-06T13:54:52;6.00;;;5.20;;
75506;SDS011;64086;43.220;27.878;2023-08-06T13:57:18;5.90;;;5.30;;
75506;SDS011;64086;43.220;27.878;2023-08-06T13:59:43;5.60;;;5.10;;
75506;SDS011;64086;43.220;27.878;2023-08-06T14:02:09;5.88;;;5.30;;
75506;SDS011;64086;43.220;27.878;2023-08-06T14:04:35;6.22;;;5.63;;
75506;SDS011;64086;43.220;27.878;2023-08-06T14:07:02;6.43;;;5.80;;
75506;SDS011;64086;43.220;27.878;2023-08-06T14:09:28;7.60;;;5.90;;
75506;SDS011;64086;43.220;27.878;2023-08-06T14:11:53;6.82;;;6.20;;
75506;SDS011;64086;43.220;27.878;2023-08-06T14:14:19;7.40;;;6.70;;
75506;SDS011;64086;43.220;27.878;2023-08-06T14:16:50;6.65;;;6.03;;
75506;SDS011;64086;43.220;27.878;2023-08-06T14:19:16;9.63;;;6.30;;
75506;SDS011;64086;43.220;27.878;2023-08-06T14:21:41;7.45;;;6.75;;
75506;SDS011;64086;43.220;27.878;2023-08-06T14:24:07;7.10;;;6.50;;
75506;SDS011;64086;43.220;27.878;2023-08-06T14:26:32;6.97;;;6.35;;
75506;SDS011;64086;43.220;27.878;2023-08-06T14:28:57;6.53;;;6.03;;
75506;SDS011;64086;43.220;27.878;2023-08-06T14:31:23;8.00;;;6.47;;
75506;SDS011;64086;43.220;27.878;2023-08-06T14:33:48;7.13;;;6.43;;
75506;SDS011;64086;43.220;27.878;2023-08-06T14:36:14;7.07;;;6.03;;
75506;SDS011;64086;43.220;27.878;2023-08-06T14:38:39;10.10;;;6.45;;
75506;SDS011;64086;43.220;27.878;2023-08-06T14:41:05;7.03;;;6.07;;
75506;SDS011;64086;43.220;27.878;2023-08-06T14:43:31;6.55;;;5.90;;
75506;SDS011;64086;43.220;27.878;2023-08-06T14:45:56;6.50;;;5.90;;